createdAt,value
2018-09-19T00:00:14.921Z,20.70
2018-09-19T00:02:51.468Z,20.60
2018-09-19T00:05:27.783Z,20.60
2018-09-19T00:08:04.346Z,20.50
2018-09-19T00:10:40.944Z,20.40
2018-09-19T00:13:17.271Z,20.40
2018-09-19T00:15:54.413Z,20.30
2018-09-19T00:18:30.901Z,20.20
2018-09-19T00:21:07.333Z,20.20
2018-09-19T00:23:43.830Z,20.10
2018-09-19T00:26:20.257Z,20.00
2018-09-19T00:28:56.730Z,20.00
2018-09-19T00:31:33.747Z,19.90
2018-09-19T00:34:10.207Z,19.80
2018-09-19T00:36:46.527Z,19.80
2018-09-19T00:39:23.084Z,19.70
2018-09-19T00:41:59.557Z,19.80
2018-09-19T00:44:36.045Z,19.70
2018-09-19T00:47:12.528Z,19.70
2018-09-19T00:49:49.010Z,19.60
2018-09-19T00:52:25.465Z,19.70
2018-09-19T00:55:01.942Z,19.60
2018-09-19T00:57:38.386Z,19.60
2018-09-19T01:00:14.936Z,19.60
2018-09-19T01:02:51.468Z,19.70
2018-09-19T01:05:27.932Z,19.70
2018-09-19T01:08:04.537Z,19.70
2018-09-19T01:10:41.051Z,19.70
2018-09-19T01:13:17.530Z,19.70
2018-09-19T01:15:54.071Z,19.60
2018-09-19T01:18:30.570Z,19.60
2018-09-19T01:21:07.154Z,19.60
2018-09-19T01:23:43.489Z,19.50
2018-09-19T01:26:19.936Z,19.50
2018-09-19T01:28:56.418Z,19.50
2018-09-19T01:31:32.864Z,19.50
2018-09-19T01:34:09.239Z,19.50
2018-09-19T01:36:45.714Z,19.50
2018-09-19T01:39:21.997Z,19.50
2018-09-19T01:41:58.304Z,19.40
2018-09-19T01:44:34.720Z,19.40
2018-09-19T01:47:11.199Z,19.40
2018-09-19T01:49:47.670Z,19.50
2018-09-19T01:52:24.080Z,19.50
2018-09-19T01:55:00.585Z,19.30
2018-09-19T01:57:37.058Z,19.30
2018-09-19T02:00:13.511Z,19.30
2018-09-19T02:02:49.967Z,19.40
2018-09-19T02:05:26.544Z,19.40
2018-09-19T02:08:02.916Z,19.40
2018-09-19T02:10:39.425Z,19.40
2018-09-19T02:13:15.738Z,19.40
2018-09-19T02:15:52.172Z,19.40
2018-09-19T02:18:28.639Z,19.30
2018-09-19T02:21:05.179Z,19.30
2018-09-19T02:23:41.487Z,19.30
2018-09-19T02:26:17.838Z,19.30
2018-09-19T02:28:54.298Z,19.30
2018-09-19T02:31:30.725Z,19.30
2018-09-19T02:34:07.460Z,19.30
2018-09-19T02:36:43.883Z,19.30
2018-09-19T02:39:20.194Z,19.40
2018-09-19T02:41:56.576Z,19.40
2018-09-19T02:44:33.383Z,19.40
2018-09-19T02:47:10.307Z,19.40
2018-09-19T02:49:46.831Z,19.40
2018-09-19T02:52:23.310Z,19.40
2018-09-19T02:54:59.887Z,19.40
2018-09-19T02:57:36.924Z,19.40
2018-09-19T03:00:13.591Z,19.40
2018-09-19T03:02:50.453Z,19.40
2018-09-19T03:05:26.893Z,19.40
2018-09-19T03:08:03.312Z,19.30
2018-09-19T03:10:39.795Z,19.30
2018-09-19T03:13:16.266Z,19.20
2018-09-19T03:15:52.753Z,19.20
2018-09-19T03:18:29.198Z,19.20
2018-09-19T03:21:05.859Z,19.10
2018-09-19T03:23:42.190Z,19.20
2018-09-19T03:26:18.682Z,19.20
2018-09-19T03:28:55.168Z,19.20
2018-09-19T03:31:31.492Z,19.20
2018-09-19T03:34:07.911Z,19.10
2018-09-19T03:36:44.386Z,19.20
2018-09-19T03:39:20.824Z,19.20
2018-09-19T03:41:57.302Z,19.10
2018-09-19T03:44:33.806Z,19.10
2018-09-19T03:47:10.520Z,19.10
2018-09-19T03:49:47.250Z,19.00
2018-09-19T03:52:23.893Z,19.00
2018-09-19T03:55:00.404Z,19.00
2018-09-19T03:57:36.867Z,18.90
2018-09-19T04:00:13.306Z,18.80
2018-09-19T04:02:49.714Z,18.80
2018-09-19T04:05:26.128Z,18.80
2018-09-19T04:08:02.446Z,18.70
2018-09-19T04:10:38.964Z,18.70
2018-09-19T04:13:15.785Z,18.60
2018-09-19T04:15:52.249Z,18.60
2018-09-19T04:18:28.698Z,18.50
2018-09-19T04:21:05.195Z,18.40
2018-09-19T04:23:41.706Z,18.40
2018-09-19T04:26:18.182Z,18.30
2018-09-19T04:28:54.639Z,18.30
2018-09-19T04:31:31.154Z,18.30
2018-09-19T04:34:07.785Z,18.20
2018-09-19T04:36:44.327Z,18.20
2018-09-19T04:39:20.738Z,18.20
2018-09-19T04:41:57.215Z,18.10
2018-09-19T04:44:33.712Z,18.10
2018-09-19T04:47:10.226Z,18.00
2018-09-19T04:49:46.673Z,18.00
2018-09-19T04:52:23.210Z,18.00
2018-09-19T04:54:59.732Z,18.00
2018-09-19T04:57:36.091Z,17.90
2018-09-19T05:00:12.592Z,18.00
2018-09-19T05:02:48.932Z,17.90
2018-09-19T05:05:25.260Z,17.90
2018-09-19T05:08:01.719Z,17.90
2018-09-19T05:10:38.124Z,17.80
2018-09-19T05:13:14.622Z,17.80
2018-09-19T05:15:51.243Z,17.90
2018-09-19T05:18:27.508Z,17.80
2018-09-19T05:21:03.935Z,17.80
2018-09-19T05:23:40.326Z,17.70
2018-09-19T05:26:16.699Z,17.70
2018-09-19T05:28:53.222Z,17.70
2018-09-19T05:31:29.699Z,17.70
2018-09-19T05:34:06.053Z,17.70
2018-09-19T05:36:42.567Z,17.70
2018-09-19T05:39:19.106Z,17.70
2018-09-19T05:41:55.637Z,17.80
2018-09-19T05:44:32.022Z,17.90
2018-09-19T05:47:08.353Z,18.00
2018-09-19T05:49:44.659Z,18.10
2018-09-19T05:52:25.388Z,18.30
2018-09-19T05:55:01.660Z,18.40
2018-09-19T05:57:38.112Z,18.40
2018-09-19T06:00:14.535Z,18.50
2018-09-19T06:02:50.925Z,18.60
2018-09-19T06:05:27.627Z,18.70
2018-09-19T06:08:04.007Z,19.00
2018-09-19T06:10:40.438Z,19.20
2018-09-19T06:13:16.939Z,19.50
2018-09-19T06:15:53.375Z,19.80
2018-09-19T06:18:29.909Z,20.20
2018-09-19T06:21:06.445Z,20.60
2018-09-19T06:23:42.695Z,20.90
2018-09-19T06:26:19.146Z,20.90
2018-09-19T06:28:55.670Z,21.20
2018-09-19T06:31:32.069Z,21.60
2018-09-19T06:34:08.454Z,21.70
2018-09-19T06:36:44.803Z,22.00
2018-09-19T06:39:21.242Z,22.40
2018-09-19T06:41:57.754Z,22.70
2018-09-19T06:44:34.045Z,22.80
2018-09-19T06:47:10.244Z,22.90
2018-09-19T06:49:46.849Z,23.10
2018-09-19T06:52:23.551Z,23.20
2018-09-19T06:54:59.939Z,23.10
2018-09-19T06:57:36.495Z,23.20
2018-09-19T07:00:12.975Z,23.40
2018-09-19T07:02:49.287Z,23.90
2018-09-19T07:05:25.757Z,24.00
2018-09-19T07:08:02.275Z,24.40
2018-09-19T07:10:38.834Z,24.80
2018-09-19T07:13:15.196Z,25.00
2018-09-19T07:15:51.759Z,25.00
2018-09-19T07:18:28.114Z,25.30
2018-09-19T07:21:04.594Z,25.30
2018-09-19T07:23:41.222Z,25.60
2018-09-19T07:26:17.596Z,25.90
2018-09-19T07:28:54.124Z,25.60
2018-09-19T07:31:30.691Z,25.60
2018-09-19T07:34:07.440Z,25.60
2018-09-19T07:36:43.797Z,25.60
2018-09-19T07:39:20.532Z,25.60
2018-09-19T07:41:56.956Z,25.60
2018-09-19T07:44:33.429Z,26.00
2018-09-19T07:47:09.806Z,26.40
2018-09-19T07:49:46.121Z,26.40
2018-09-19T07:52:22.586Z,26.30
2018-09-19T07:54:58.923Z,26.50
2018-09-19T07:57:35.456Z,26.70
2018-09-19T08:00:11.761Z,26.70
2018-09-19T08:02:48.243Z,27.00
2018-09-19T08:05:24.772Z,27.00
2018-09-19T08:08:01.163Z,27.10
2018-09-19T08:10:37.667Z,26.90
2018-09-19T08:13:14.170Z,27.10
2018-09-19T08:15:50.455Z,27.30
2018-09-19T08:18:26.990Z,27.60
2018-09-19T08:21:03.768Z,27.70
2018-09-19T08:23:40.255Z,28.00
2018-09-19T08:26:16.652Z,28.20
2018-09-19T08:28:53.016Z,28.10
2018-09-19T08:31:29.505Z,28.20
2018-09-19T08:34:06.039Z,28.10
2018-09-19T08:36:42.472Z,27.90
2018-09-19T08:39:18.846Z,27.60
2018-09-19T08:41:55.413Z,27.70
2018-09-19T08:44:31.824Z,28.00
2018-09-19T08:47:08.276Z,28.20
2018-09-19T08:49:44.688Z,28.20
2018-09-19T08:52:21.144Z,28.20
2018-09-19T08:54:57.647Z,28.10
2018-09-19T08:57:34.100Z,28.20
2018-09-19T09:00:11.241Z,28.50
2018-09-19T09:02:47.657Z,28.90
2018-09-19T09:05:24.184Z,29.30
2018-09-19T09:08:00.510Z,29.40
2018-09-19T09:10:37.020Z,29.00
2018-09-19T09:13:13.666Z,29.10
2018-09-19T09:15:50.682Z,29.50
2018-09-19T09:18:27.178Z,29.40
2018-09-19T09:21:03.542Z,29.10
2018-09-19T09:23:40.856Z,29.00
2018-09-19T09:26:17.356Z,29.50
2018-09-19T09:28:53.685Z,29.70
2018-09-19T09:31:30.955Z,30.00
2018-09-19T09:34:07.494Z,29.70
2018-09-19T09:36:43.825Z,29.70
2018-09-19T09:39:20.588Z,29.60
2018-09-19T09:41:57.053Z,29.50
2018-09-19T09:44:33.532Z,29.50
2018-09-19T09:47:09.989Z,29.70
2018-09-19T09:49:46.511Z,30.00
2018-09-19T09:52:22.954Z,29.70
2018-09-19T09:54:59.457Z,29.60
2018-09-19T09:57:35.679Z,29.40
2018-09-19T10:00:12.321Z,29.60
2018-09-19T10:02:48.900Z,29.50
2018-09-19T10:05:25.283Z,29.90
2018-09-19T10:08:01.754Z,30.30
2018-09-19T10:10:39.075Z,30.30
2018-09-19T10:13:15.511Z,30.30
2018-09-19T10:15:51.979Z,30.50
2018-09-19T10:18:28.479Z,30.30
2018-09-19T10:21:05.072Z,30.40
2018-09-19T10:23:41.493Z,30.40
2018-09-19T10:26:17.898Z,30.70
2018-09-19T10:28:54.183Z,30.90
2018-09-19T10:31:30.705Z,31.10
2018-09-19T10:34:07.248Z,31.30
2018-09-19T10:36:43.715Z,31.00
2018-09-19T10:39:20.185Z,30.90
2018-09-19T10:41:56.660Z,30.70
2018-09-19T10:44:33.157Z,30.80
2018-09-19T10:47:09.589Z,30.90
2018-09-19T10:49:46.932Z,31.00
2018-09-19T10:52:23.790Z,31.20
2018-09-19T10:55:00.273Z,31.60
2018-09-19T10:57:36.793Z,31.50
2018-09-19T11:00:13.316Z,31.00
2018-09-19T11:02:49.750Z,31.10
2018-09-19T11:05:26.536Z,31.00
2018-09-19T11:08:06.561Z,31.10
2018-09-19T11:10:43.076Z,31.10
2018-09-19T11:13:19.490Z,30.90
2018-09-19T11:15:55.951Z,31.00
2018-09-19T11:18:32.438Z,31.10
2018-09-19T11:21:08.867Z,31.00
2018-09-19T11:23:45.418Z,30.90
2018-09-19T11:26:21.785Z,30.70
2018-09-19T11:28:58.215Z,30.60
2018-09-19T11:31:34.687Z,30.50
2018-09-19T11:34:11.150Z,30.50
2018-09-19T11:36:47.663Z,30.50
2018-09-19T11:39:24.068Z,30.50
2018-09-19T11:42:00.567Z,30.70
2018-09-19T11:44:37.026Z,30.80
2018-09-19T11:47:13.490Z,30.90
2018-09-19T11:49:50.294Z,30.90
2018-09-19T11:52:26.581Z,30.60
2018-09-19T11:55:03.100Z,30.60
2018-09-19T11:57:39.594Z,30.70
2018-09-19T12:00:15.872Z,30.70
2018-09-19T12:02:53.412Z,30.30
2018-09-19T12:05:29.804Z,30.20
2018-09-19T12:08:06.487Z,30.20
2018-09-19T12:10:42.874Z,30.20
2018-09-19T12:13:19.364Z,30.30
2018-09-19T12:15:55.872Z,30.30
2018-09-19T12:18:32.314Z,30.40
2018-09-19T12:21:08.790Z,30.40
2018-09-19T12:23:45.335Z,30.50
2018-09-19T12:26:21.813Z,30.60
2018-09-19T12:28:58.178Z,30.40
2018-09-19T12:31:34.644Z,30.50
2018-09-19T12:34:11.290Z,30.20
2018-09-19T12:36:47.725Z,30.20
2018-09-19T12:39:24.148Z,30.30
2018-09-19T12:42:00.664Z,30.30
2018-09-19T12:44:37.069Z,30.50
2018-09-19T12:47:13.598Z,30.30
2018-09-19T12:49:50.612Z,29.90
2018-09-19T12:52:26.978Z,30.00
2018-09-19T12:55:03.436Z,30.20
2018-09-19T12:57:39.807Z,30.30
2018-09-19T13:00:16.196Z,30.20
2018-09-19T13:02:52.559Z,30.20
2018-09-19T13:05:29.010Z,30.00
2018-09-19T13:08:05.364Z,29.90
2018-09-19T13:10:41.850Z,30.00
2018-09-19T13:13:18.335Z,30.10
2018-09-19T13:15:54.714Z,30.20
2018-09-19T13:18:31.143Z,30.40
2018-09-19T13:21:07.520Z,30.60
2018-09-19T13:23:43.957Z,30.80
2018-09-19T13:26:20.530Z,30.90
2018-09-19T13:28:57.030Z,30.80
2018-09-19T13:31:33.495Z,30.70
2018-09-19T13:34:09.963Z,30.60
2018-09-19T13:36:46.435Z,30.30
2018-09-19T13:39:22.751Z,30.20
2018-09-19T13:41:59.246Z,30.20
2018-09-19T13:44:35.778Z,30.20
2018-09-19T13:47:12.255Z,30.20
2018-09-19T13:49:53.101Z,29.90
2018-09-19T13:52:29.354Z,29.80
2018-09-19T13:55:06.531Z,29.90
2018-09-19T13:57:42.832Z,29.70
2018-09-19T14:00:19.209Z,29.60
2018-09-19T14:02:55.720Z,29.50
2018-09-19T14:05:32.042Z,29.60
2018-09-19T14:08:08.756Z,29.70
2018-09-19T14:10:45.255Z,29.80
2018-09-19T14:13:21.491Z,30.00
2018-09-19T14:15:57.922Z,30.00
2018-09-19T14:18:34.426Z,30.00
2018-09-19T14:21:10.886Z,30.00
2018-09-19T14:23:47.385Z,29.80
2018-09-19T14:26:24.053Z,29.70
2018-09-19T14:29:00.442Z,29.50
2018-09-19T14:31:36.864Z,29.40
2018-09-19T14:34:13.635Z,29.30
2018-09-19T14:36:49.993Z,29.30
2018-09-19T14:39:26.443Z,29.30
2018-09-19T14:42:02.836Z,29.50
2018-09-19T14:44:39.307Z,29.60
2018-09-19T14:47:15.818Z,29.50
2018-09-19T14:49:52.322Z,29.40
2018-09-19T14:52:28.871Z,29.40
2018-09-19T14:55:05.534Z,29.40
2018-09-19T14:57:41.874Z,29.40
2018-09-19T15:00:18.231Z,29.40
2018-09-19T15:02:54.497Z,29.30
2018-09-19T15:05:31.108Z,29.20
2018-09-19T15:08:07.636Z,29.20
2018-09-19T15:10:44.092Z,29.10
2018-09-19T15:13:20.545Z,29.10
2018-09-19T15:15:57.046Z,29.10
2018-09-19T15:18:33.508Z,29.10
2018-09-19T15:21:09.976Z,29.20
2018-09-19T15:23:46.470Z,29.10
2018-09-19T15:26:22.912Z,29.20
2018-09-19T15:28:59.832Z,29.20
2018-09-19T15:31:36.335Z,29.20
2018-09-19T15:34:12.819Z,29.20
2018-09-19T15:36:49.272Z,29.30
2018-09-19T15:39:25.560Z,29.20
2018-09-19T15:42:01.973Z,29.20
2018-09-19T15:44:38.484Z,29.20
2018-09-19T15:47:14.883Z,29.20
2018-09-19T15:49:51.318Z,29.10
2018-09-19T15:52:27.751Z,29.10
2018-09-19T15:55:05.066Z,29.00
2018-09-19T15:57:41.412Z,29.10
2018-09-19T16:00:18.335Z,29.10
2018-09-19T16:02:54.994Z,29.00
2018-09-19T16:05:31.305Z,29.00
2018-09-19T16:08:07.746Z,29.00
2018-09-19T16:10:44.425Z,29.00
2018-09-19T16:13:20.794Z,28.90
2018-09-19T16:15:57.254Z,28.90
2018-09-19T16:18:33.613Z,28.90
2018-09-19T16:21:10.065Z,28.80
2018-09-19T16:23:46.536Z,28.70
2018-09-19T16:26:23.049Z,28.60
2018-09-19T16:28:59.388Z,28.60
2018-09-19T16:31:35.906Z,28.60
2018-09-19T16:34:12.407Z,28.60
2018-09-19T16:36:48.832Z,28.50
2018-09-19T16:39:25.338Z,28.40
2018-09-19T16:42:01.642Z,28.40
2018-09-19T16:44:38.078Z,28.30
2018-09-19T16:47:14.561Z,28.30
2018-09-19T16:49:51.166Z,28.30
2018-09-19T16:52:27.573Z,28.20
2018-09-19T16:55:03.944Z,28.10
2018-09-19T16:57:40.294Z,28.10
2018-09-19T17:00:17.062Z,28.00
2018-09-19T17:02:53.310Z,28.10
2018-09-19T17:05:29.877Z,28.00
2018-09-19T17:08:06.608Z,27.90
2018-09-19T17:10:42.936Z,27.80
2018-09-19T17:13:19.387Z,27.80
2018-09-19T17:15:55.809Z,27.60
2018-09-19T17:18:32.120Z,27.60
2018-09-19T17:21:08.584Z,27.50
2018-09-19T17:23:45.193Z,27.30
2018-09-19T17:26:21.653Z,27.30
2018-09-19T17:28:58.138Z,27.20
2018-09-19T17:31:34.471Z,27.20
2018-09-19T17:34:10.862Z,27.10
2018-09-19T17:36:47.351Z,27.00
2018-09-19T17:39:23.805Z,27.10
2018-09-19T17:42:00.315Z,27.10
2018-09-19T17:44:36.592Z,27.00
2018-09-19T17:47:13.052Z,26.90
2018-09-19T17:49:49.481Z,26.80
2018-09-19T17:52:25.936Z,26.70
2018-09-19T17:55:02.391Z,26.80
2018-09-19T17:57:39.017Z,26.70
2018-09-19T18:00:15.583Z,26.70
2018-09-19T18:02:52.067Z,26.70
2018-09-19T18:05:28.456Z,26.60
2018-09-19T18:08:05.059Z,26.60
2018-09-19T18:10:41.647Z,26.40
2018-09-19T18:13:17.958Z,26.40
2018-09-19T18:15:54.366Z,26.30
2018-09-19T18:18:30.651Z,26.20
2018-09-19T18:21:07.555Z,26.20
2018-09-19T18:23:44.587Z,26.10
2018-09-19T18:26:21.299Z,26.00
2018-09-19T18:28:57.760Z,25.90
2018-09-19T18:31:34.270Z,25.90
2018-09-19T18:34:11.301Z,25.90
2018-09-19T18:36:47.801Z,25.80
2018-09-19T18:39:24.348Z,25.80
2018-09-19T18:42:00.894Z,25.70
2018-09-19T18:44:37.476Z,25.60
2018-09-19T18:47:13.918Z,25.60
2018-09-19T18:49:50.422Z,25.50
2018-09-19T18:52:26.723Z,25.50
2018-09-19T18:55:03.183Z,25.40
2018-09-19T18:57:39.620Z,25.40
2018-09-19T19:00:16.311Z,25.30
2018-09-19T19:02:52.593Z,25.30
2018-09-19T19:05:29.050Z,25.20
2018-09-19T19:08:05.762Z,25.10
2018-09-19T19:10:42.235Z,25.10
2018-09-19T19:13:18.657Z,25.00
2018-09-19T19:16:01.928Z,25.00
2018-09-19T19:18:38.249Z,24.90
2018-09-19T19:21:14.536Z,24.80
2018-09-19T19:23:51.003Z,24.80
2018-09-19T19:26:27.531Z,24.70
2018-09-19T19:29:04.049Z,24.60
2018-09-19T19:31:40.662Z,24.60
2018-09-19T19:34:16.939Z,24.50
2018-09-19T19:36:53.510Z,24.50
2018-09-19T19:39:30.024Z,24.40
2018-09-19T19:42:06.453Z,24.40
2018-09-19T19:44:42.859Z,24.30
2018-09-19T19:47:19.252Z,24.30
2018-09-19T19:49:55.684Z,24.20
2018-09-19T19:52:32.125Z,24.20
2018-09-19T19:55:08.631Z,24.10
2018-09-19T19:57:46.158Z,24.00
2018-09-19T20:00:22.486Z,23.90
2018-09-19T20:02:59.622Z,23.90
2018-09-19T20:05:36.803Z,23.80
2018-09-19T20:08:13.054Z,23.80
2018-09-19T20:10:49.536Z,23.80
2018-09-19T20:13:26.051Z,23.70
2018-09-19T20:16:02.484Z,23.60
2018-09-19T20:18:39.006Z,23.60
2018-09-19T20:21:15.531Z,23.60
2018-09-19T20:23:51.985Z,23.50
2018-09-19T20:26:28.596Z,23.50
2018-09-19T20:29:05.067Z,23.50
2018-09-19T20:31:41.472Z,23.40
2018-09-19T20:34:17.987Z,23.40
2018-09-19T20:36:54.318Z,23.40
2018-09-19T20:39:30.770Z,23.40
2018-09-19T20:42:07.265Z,23.30
2018-09-19T20:44:43.816Z,23.30
2018-09-19T20:47:20.484Z,23.20
2018-09-19T20:49:56.990Z,23.30
2018-09-19T20:52:33.760Z,23.20
2018-09-19T20:55:10.128Z,23.30
2018-09-19T20:57:46.528Z,23.30
2018-09-19T21:00:22.946Z,23.20
2018-09-19T21:02:59.599Z,23.20
2018-09-19T21:05:36.108Z,23.10
2018-09-19T21:08:12.578Z,23.10
2018-09-19T21:10:49.062Z,23.10
2018-09-19T21:13:25.468Z,23.10
2018-09-19T21:16:01.950Z,23.00
2018-09-19T21:18:38.562Z,23.00
2018-09-19T21:21:14.915Z,22.90
2018-09-19T21:23:51.175Z,22.90
2018-09-19T21:26:27.570Z,22.80
2018-09-19T21:29:03.880Z,22.70
2018-09-19T21:31:40.365Z,22.60
2018-09-19T21:34:17.032Z,22.60
2018-09-19T21:36:53.481Z,22.50
2018-09-19T21:39:29.972Z,22.50
2018-09-19T21:42:06.469Z,22.40
2018-09-19T21:44:42.826Z,22.40
2018-09-19T21:47:19.267Z,22.30
2018-09-19T21:49:55.740Z,22.20
2018-09-19T21:52:32.192Z,22.20
2018-09-19T21:55:08.555Z,22.10
2018-09-19T21:57:45.039Z,22.00
2018-09-19T22:00:21.564Z,21.90
2018-09-19T22:02:58.072Z,21.90
2018-09-19T22:05:34.531Z,21.90
2018-09-19T22:08:10.815Z,21.80
2018-09-19T22:10:47.575Z,21.80
2018-09-19T22:13:24.071Z,21.70
2018-09-19T22:16:00.663Z,21.70
2018-09-19T22:18:37.067Z,21.70
2018-09-19T22:21:13.476Z,21.70
2018-09-19T22:23:49.913Z,21.60
2018-09-19T22:26:26.360Z,21.70
2018-09-19T22:29:02.815Z,21.70
2018-09-19T22:31:39.229Z,21.70
2018-09-19T22:34:15.668Z,21.60
2018-09-19T22:36:52.027Z,21.50
2018-09-19T22:39:28.491Z,21.40
2018-09-19T22:42:04.981Z,21.30
2018-09-19T22:44:41.229Z,21.30
2018-09-19T22:47:17.711Z,21.30
2018-09-19T22:49:54.172Z,21.10
2018-09-19T22:52:31.123Z,21.10
2018-09-19T22:55:07.661Z,21.10
2018-09-19T22:57:44.092Z,21.00
2018-09-19T23:00:20.458Z,21.10
2018-09-19T23:02:56.847Z,21.00
2018-09-19T23:05:33.291Z,21.00
2018-09-19T23:08:09.736Z,20.90
2018-09-19T23:10:46.198Z,20.90
2018-09-19T23:13:22.849Z,20.80
2018-09-19T23:15:59.126Z,20.80
2018-09-19T23:18:35.614Z,20.70
2018-09-19T23:21:12.040Z,20.60
2018-09-19T23:23:48.528Z,20.60
2018-09-19T23:26:25.012Z,20.50
2018-09-19T23:29:01.495Z,20.50
2018-09-19T23:31:37.975Z,20.40
2018-09-19T23:34:14.412Z,20.40
2018-09-19T23:36:50.884Z,20.40
2018-09-19T23:39:27.385Z,20.30
2018-09-19T23:42:04.140Z,20.30
2018-09-19T23:44:40.446Z,20.20
2018-09-19T23:47:16.855Z,20.20
2018-09-19T23:49:53.255Z,20.20
2018-09-19T23:52:29.698Z,20.10
2018-09-19T23:55:06.126Z,20.10
2018-09-19T23:57:42.437Z,20.00
